Athens, Wisconsin
Current Conditions -  °F | °C
As of 9:35 AM on Friday 31 Oct 2014 (Local Time) from KMDZ Reporting Station
Overcast Overcast  
Wind Chill: 20°   Ceiling: 2300
Heat Index: 30°   Visibility: 10mi
Dew Point: 22°   Wind: 12mph
Humidity: 72%   Direction: 360°N
Pressure: 30.37"   Gusts: 30mph
Location:  45.03°N, 90.07°W
Report Text: KMDZ 311435Z AUTO 36010G26KT 10SM BKN023 OVC029 M01/M06 A3037 RMK AO2 T10121056
Loading
Personal Weather Stations






























Interactive Weather Map
Tropical Storm Tracking
New forecast layout! Learn more

10-Day Weather Forecast

Advertisements
Track Severe Weather on mobile